createdAt,value
2018-02-09T00:00:29.168Z,-5.22
2018-02-09T00:01:29.174Z,-5.18
2018-02-09T00:02:29.450Z,-5.37
2018-02-09T00:03:29.175Z,-5.37
2018-02-09T00:04:29.203Z,-5.32
2018-02-09T00:05:29.199Z,-5.29
2018-02-09T00:06:29.230Z,-5.26
2018-02-09T00:07:29.236Z,-5.39
2018-02-09T00:08:29.486Z,-5.37
2018-02-09T00:09:29.264Z,-5.36
2018-02-09T00:10:29.511Z,-5.37
2018-02-09T00:11:29.298Z,-5.39
2018-02-09T00:12:43.944Z,-5.27
2018-02-09T00:13:29.557Z,-5.25
2018-02-09T00:14:29.553Z,-5.35
2018-02-09T00:15:29.557Z,-5.29
2018-02-09T00:16:29.558Z,-5.33
2018-02-09T00:17:29.566Z,-5.37
2018-02-09T00:18:29.601Z,-5.36
2018-02-09T00:19:29.352Z,-5.39
2018-02-09T00:20:29.620Z,-5.25
2018-02-09T00:21:29.598Z,-5.29
2018-02-09T00:22:29.613Z,-5.3
2018-02-09T00:23:29.634Z,-5.29
2018-02-09T00:24:29.384Z,-5.3
2018-02-09T00:25:29.409Z,-5.32
2018-02-09T00:26:29.643Z,-5.5
2018-02-09T00:27:44.347Z,-5.47
2018-02-09T00:28:44.094Z,-5.46
2018-02-09T00:29:29.679Z,-5.47
2018-02-09T00:30:29.445Z,-5.51
2018-02-09T00:31:29.470Z,-5.51
2018-02-09T00:32:29.472Z,-5.48
2018-02-09T00:33:29.743Z,-5.51
2018-02-09T00:34:29.476Z,-5.5
2018-02-09T00:36:29.761Z,-5.36
2018-02-09T00:37:29.772Z,-5.32
2018-02-09T00:38:29.776Z,-5.43
2018-02-09T00:40:29.546Z,-5.22
2018-02-09T00:41:29.560Z,-5.29
2018-02-09T00:42:29.817Z,-5.32
2018-02-09T00:43:29.832Z,-5.32
2018-02-09T00:44:44.509Z,-5.32
2018-02-09T00:47:29.604Z,-5.36
2018-02-09T00:48:29.613Z,-5.5
2018-02-09T00:49:44.297Z,-5.47
2018-02-09T00:50:29.900Z,-5.47
2018-02-09T00:51:29.894Z,-5.46
2018-02-09T00:52:29.925Z,-5.51
2018-02-09T00:53:29.914Z,-5.5
2018-02-09T00:55:29.946Z,-5.5
2018-02-09T00:56:29.943Z,-5.59
2018-02-09T00:57:44.633Z,-5.61
2018-02-09T00:58:29.728Z,-5.66
2018-02-09T00:59:29.969Z,-5.66
2018-02-09T01:00:44.406Z,-5.69
2018-02-09T01:01:29.764Z,-5.75
2018-02-09T01:02:29.750Z,-5.8
2018-02-09T01:03:30.030Z,-5.8
2018-02-09T01:04:29.774Z,-5.8
2018-02-09T01:05:29.772Z,-5.82
2018-02-09T01:06:29.781Z,-5.82
2018-02-09T01:07:29.791Z,-5.83
2018-02-09T01:08:29.822Z,-5.9
2018-02-09T01:09:29.832Z,-5.75
2018-02-09T01:10:29.819Z,-5.71
2018-02-09T01:11:29.586Z,-5.74
2018-02-09T01:13:29.605Z,-5.59
2018-02-09T01:14:30.130Z,-5.57
2018-02-09T01:15:44.809Z,-5.55
2018-02-09T01:16:29.893Z,-5.44
2018-02-09T01:17:30.145Z,-5.43
2018-02-09T01:18:44.574Z,-5.44
2018-02-09T01:19:30.173Z,-5.39
2018-02-09T01:20:30.183Z,-5.35
2018-02-09T01:21:30.181Z,-5.36
2018-02-09T01:22:29.941Z,-5.51
2018-02-09T01:23:30.196Z,-5.71
2018-02-09T01:24:30.230Z,-5.72
2018-02-09T01:25:29.965Z,-5.74
2018-02-09T01:26:44.919Z,-5.68
2018-02-09T01:27:29.997Z,-5.72
2018-02-09T01:28:30.001Z,-5.69
2018-02-09T01:29:30.288Z,-5.68
2018-02-09T01:30:30.274Z,-5.75
2018-02-09T01:31:30.283Z,-5.83
2018-02-09T01:32:30.049Z,-5.87
2018-02-09T01:33:30.304Z,-5.89
2018-02-09T01:34:30.058Z,-5.83
2018-02-09T01:35:30.319Z,-5.89
2018-02-09T01:36:30.337Z,-5.87
2018-02-09T01:37:30.088Z,-5.94
2018-02-09T01:38:30.366Z,-5.92
2018-02-09T01:39:29.858Z,-5.82
2018-02-09T01:40:30.111Z,-5.92
2018-02-09T01:41:30.224Z,-5.9
2018-02-09T01:42:30.394Z,-5.9
2018-02-09T01:43:30.462Z,-5.97
2018-02-09T01:44:30.144Z,-5.87
2018-02-09T01:45:45.139Z,-5.9
2018-02-09T01:46:30.166Z,-5.97
2018-02-09T01:47:45.116Z,-5.9
2018-02-09T01:48:30.454Z,-5.89
2018-02-09T01:50:30.478Z,-5.98
2018-02-09T01:51:30.220Z,-6.03
2018-02-09T01:52:30.213Z,-6.05
2018-02-09T01:54:30.505Z,-6.1
2018-02-09T01:55:30.501Z,-6.08
2018-02-09T01:56:30.519Z,-6.01
2018-02-09T01:57:30.267Z,-5.92
2018-02-09T01:58:30.286Z,-6.01
2018-02-09T01:59:30.570Z,-5.87
2018-02-09T02:00:30.556Z,-5.98
2018-02-09T02:01:30.563Z,-5.92
2018-02-09T02:02:30.582Z,-6
2018-02-09T02:03:45.241Z,-6.01
2018-02-09T02:04:30.586Z,-5.98
2018-02-09T02:05:30.594Z,-5.98
2018-02-09T02:06:30.092Z,-6.04
2018-02-09T02:07:30.628Z,-6.11
2018-02-09T02:08:30.609Z,-6.01
2018-02-09T02:09:30.637Z,-5.98
2018-02-09T02:10:30.399Z,-6.01
2018-02-09T02:11:30.655Z,-6.21
2018-02-09T02:12:45.077Z,-6.04
2018-02-09T02:13:30.426Z,-6.05
2018-02-09T02:14:30.709Z,-5.97
2018-02-09T02:15:30.710Z,-6.04
2018-02-09T02:16:30.699Z,-5.93
2018-02-09T02:17:30.714Z,-5.97
2018-02-09T02:18:30.711Z,-5.93
2018-02-09T02:19:45.406Z,-5.97
2018-02-09T02:20:30.740Z,-5.89
2018-02-09T02:21:30.746Z,-6.01
2018-02-09T02:22:30.510Z,-6.01
2018-02-09T02:23:30.746Z,-5.84
2018-02-09T02:25:30.762Z,-6
2018-02-09T02:26:30.537Z,-6
2018-02-09T02:27:30.804Z,-6.08
2018-02-09T02:28:45.473Z,-6.11
2018-02-09T02:29:30.565Z,-6.15
2018-02-09T02:30:30.596Z,-6.15
2018-02-09T02:31:30.582Z,-6.22
2018-02-09T02:32:30.837Z,-6.15
2018-02-09T02:33:30.856Z,-6.19
2018-02-09T02:34:30.869Z,-6.1
2018-02-09T02:35:45.556Z,-6
2018-02-09T02:36:30.615Z,-6.05
2018-02-09T02:37:30.901Z,-6.04
2018-02-09T02:38:30.908Z,-6.08
2018-02-09T02:39:30.664Z,-6.05
2018-02-09T02:40:30.917Z,-6.04
2018-02-09T02:41:30.687Z,-6.04
2018-02-09T02:42:30.682Z,-6.11
2018-02-09T02:43:30.699Z,-6.19
2018-02-09T02:44:30.949Z,-6.31
2018-02-09T02:46:30.977Z,-6.19
2018-02-09T02:47:30.725Z,-6.23
2018-02-09T02:48:30.998Z,-6.31
2018-02-09T02:49:31.005Z,-6.31
2018-02-09T02:50:45.685Z,-6.37
2018-02-09T02:51:30.758Z,-6.25
2018-02-09T02:52:31.040Z,-6.28
2018-02-09T02:53:31.053Z,-6.22
2018-02-09T02:54:30.795Z,-6.13
2018-02-09T02:55:31.075Z,-6.15
2018-02-09T02:56:31.063Z,-6.23
2018-02-09T02:57:45.486Z,-6.37
2018-02-09T02:58:30.838Z,-6.32
2018-02-09T02:59:45.507Z,-6.34
2018-02-09T03:00:31.141Z,-6.23
2018-02-09T03:01:30.876Z,-6.32
2018-02-09T03:02:31.155Z,-6.42
2018-02-09T03:03:31.141Z,-6.42
2018-02-09T03:04:31.152Z,-6.39
2018-02-09T03:05:30.916Z,-6.42
2018-02-09T03:06:30.896Z,-6.34
2018-02-09T03:07:30.656Z,-6.19
2018-02-09T03:08:31.200Z,-6.18
2018-02-09T03:09:30.942Z,-6.22
2018-02-09T03:10:45.873Z,-6.23
2018-02-09T03:11:31.229Z,-6.19
2018-02-09T03:12:31.229Z,-6.22
2018-02-09T03:13:31.236Z,-6.23
2018-02-09T03:14:31.217Z,-6.19
2018-02-09T03:15:31.262Z,-6.28
2018-02-09T03:16:31.261Z,-6.26
2018-02-09T03:17:31.316Z,-6.28
2018-02-09T03:18:31.256Z,-6.39
2018-02-09T03:19:30.773Z,-6.42
2018-02-09T03:20:31.288Z,-6.44
2018-02-09T03:21:31.296Z,-6.37
2018-02-09T03:22:45.984Z,-6.32
2018-02-09T03:23:31.063Z,-6.19
2018-02-09T03:24:46.003Z,-6.18
2018-02-09T03:25:31.335Z,-6.32
2018-02-09T03:26:31.355Z,-6.26
2018-02-09T03:27:31.345Z,-6.21
2018-02-09T03:28:31.383Z,-6.22
2018-02-09T03:29:31.391Z,-6.16
2018-02-09T03:30:31.389Z,-6.18
2018-02-09T03:31:31.401Z,-6.21
2018-02-09T03:32:31.399Z,-6.32
2018-02-09T03:33:31.404Z,-6.23
2018-02-09T03:34:31.426Z,-6.22
2018-02-09T03:35:31.435Z,-6.19
2018-02-09T03:36:31.448Z,-6.19
2018-02-09T03:37:31.482Z,-6.25
2018-02-09T03:38:46.116Z,-6.25
2018-02-09T03:39:31.212Z,-6.36
2018-02-09T03:40:31.489Z,-6.39
2018-02-09T03:41:31.235Z,-6.49
2018-02-09T03:42:31.224Z,-6.28
2018-02-09T03:44:31.494Z,-6.52
2018-02-09T03:45:31.257Z,-6.37
2018-02-09T03:46:31.526Z,-6.31
2018-02-09T03:47:31.535Z,-6.22
2018-02-09T03:48:31.549Z,-6.19
2018-02-09T03:49:31.560Z,-6.29
2018-02-09T03:50:31.297Z,-6.29
2018-02-09T03:51:46.231Z,-6.26
2018-02-09T03:52:31.580Z,-6.19
2018-02-09T03:53:31.582Z,-6.26
2018-02-09T03:54:46.271Z,-6.25
2018-02-09T03:55:46.277Z,-6.31
2018-02-09T03:56:31.620Z,-6.34
2018-02-09T03:57:31.734Z,-6.31
2018-02-09T03:58:31.618Z,-6.32
2018-02-09T04:00:31.649Z,-6.28
2018-02-09T04:01:31.675Z,-6.16
2018-02-09T04:02:31.670Z,-6.1
2018-02-09T04:03:31.668Z,-6.22
2018-02-09T04:04:31.688Z,-6.25
2018-02-09T04:05:31.712Z,-6.28
2018-02-09T04:06:46.385Z,-6.34
2018-02-09T04:07:31.715Z,-6.28
2018-02-09T04:08:31.717Z,-6.29
2018-02-09T04:09:31.485Z,-6.36
2018-02-09T04:11:31.753Z,-6.21
2018-02-09T04:12:31.780Z,-6.23
2018-02-09T04:13:46.188Z,-6.18
2018-02-09T04:14:31.792Z,-6.23
2018-02-09T04:15:31.800Z,-6.21
2018-02-09T04:16:31.782Z,-6.16
2018-02-09T04:17:31.813Z,-6.22
2018-02-09T04:18:31.561Z,-6.32
2018-02-09T04:19:31.574Z,-6.34
2018-02-09T04:20:31.847Z,-6.26
2018-02-09T04:21:31.590Z,-6.18
2018-02-09T04:22:46.512Z,-6.16
2018-02-09T04:23:31.866Z,-6.21
2018-02-09T04:24:31.884Z,-6.25
2018-02-09T04:25:46.297Z,-6.21
2018-02-09T04:26:31.905Z,-6.34
2018-02-09T04:27:31.880Z,-6.29
2018-02-09T04:28:31.651Z,-6.4
2018-02-09T04:29:31.918Z,-6.46
2018-02-09T04:30:31.921Z,-6.44
2018-02-09T04:31:46.620Z,-6.54
2018-02-09T04:32:31.922Z,-6.43
2018-02-09T04:33:31.957Z,-6.47
2018-02-09T04:34:31.723Z,-6.42
2018-02-09T04:35:31.723Z,-6.43
2018-02-09T04:36:31.990Z,-6.42
2018-02-09T04:37:31.727Z,-6.43
2018-02-09T04:38:32.011Z,-6.39
2018-02-09T04:39:31.990Z,-6.46
2018-02-09T04:40:32.014Z,-6.5
2018-02-09T04:41:46.700Z,-6.61
2018-02-09T04:42:32.038Z,-6.55
2018-02-09T04:44:31.782Z,-6.55
2018-02-09T04:45:32.066Z,-6.59
2018-02-09T04:46:32.079Z,-6.61
2018-02-09T04:47:32.072Z,-6.66
2018-02-09T04:48:32.087Z,-6.76
2018-02-09T04:49:31.842Z,-6.8
2018-02-09T04:50:31.860Z,-6.79
2018-02-09T04:51:31.602Z,-6.8
2018-02-09T04:52:32.117Z,-6.79
2018-02-09T04:54:32.143Z,-6.73
2018-02-09T04:55:31.887Z,-6.8
2018-02-09T04:56:32.253Z,-6.73
2018-02-09T04:57:46.833Z,-6.73
2018-02-09T04:58:31.924Z,-6.69
2018-02-09T04:59:31.941Z,-6.66
2018-02-09T05:00:31.949Z,-6.47
2018-02-09T05:01:32.189Z,-6.52
2018-02-09T05:02:31.969Z,-6.49
2018-02-09T05:04:32.235Z,-6.54
2018-02-09T05:05:32.388Z,-6.58
2018-02-09T05:06:46.912Z,-6.39
2018-02-09T05:07:46.924Z,-6.42
2018-02-09T05:08:32.022Z,-6.37
2018-02-09T05:09:32.281Z,-6.34
2018-02-09T05:10:32.023Z,-6.28
2018-02-09T05:11:32.036Z,-6.26
2018-02-09T05:12:32.054Z,-6.26
2018-02-09T05:13:46.995Z,-6.32
2018-02-09T05:14:31.824Z,-6.25
2018-02-09T05:15:32.317Z,-6.28
2018-02-09T05:16:32.082Z,-6.23
2018-02-09T05:17:32.352Z,-6.18
2018-02-09T05:18:32.371Z,-6.21
2018-02-09T05:19:32.093Z,-6.16
2018-02-09T05:20:32.402Z,-6.03
2018-02-09T05:21:32.394Z,-6.07
2018-02-09T05:22:32.401Z,-6.07
2018-02-09T05:23:32.386Z,-6
2018-02-09T05:24:32.407Z,-6
2018-02-09T05:25:32.405Z,-6.05
2018-02-09T05:26:32.467Z,-5.98
2018-02-09T05:27:32.425Z,-5.93
2018-02-09T05:28:32.204Z,-5.89
2018-02-09T05:30:32.223Z,-5.86
2018-02-09T05:31:47.141Z,-5.94
2018-02-09T05:32:32.489Z,-5.83
2018-02-09T05:33:32.243Z,-5.89
2018-02-09T05:34:32.506Z,-6
2018-02-09T05:35:32.506Z,-5.9
2018-02-09T05:36:32.540Z,-5.89
2018-02-09T05:37:47.192Z,-5.86
2018-02-09T05:39:32.553Z,-5.9
2018-02-09T05:40:32.564Z,-5.93
2018-02-09T05:41:32.569Z,-5.79
2018-02-09T05:42:32.592Z,-5.84
2018-02-09T05:43:32.586Z,-5.8
2018-02-09T05:44:32.335Z,-5.75
2018-02-09T05:45:47.275Z,-5.65
2018-02-09T05:46:32.373Z,-5.76
2018-02-09T05:47:32.627Z,-5.72
2018-02-09T05:48:32.606Z,-5.62
2018-02-09T05:49:32.639Z,-5.66
2018-02-09T05:50:32.390Z,-5.57
2018-02-09T05:51:32.396Z,-5.61
2018-02-09T05:52:32.649Z,-5.59
2018-02-09T05:53:32.675Z,-5.62
2018-02-09T05:54:32.439Z,-5.53
2018-02-09T05:55:32.702Z,-5.53
2018-02-09T05:56:32.700Z,-5.48
2018-02-09T05:57:32.709Z,-5.48
2018-02-09T05:58:32.710Z,-5.47
2018-02-09T05:59:32.726Z,-5.55
2018-02-09T06:00:47.405Z,-5.55
2018-02-09T06:01:32.745Z,-5.51
2018-02-09T06:02:32.516Z,-5.62
2018-02-09T06:03:32.508Z,-5.55
2018-02-09T06:04:47.440Z,-5.51
2018-02-09T06:05:32.788Z,-5.51
2018-02-09T06:06:32.803Z,-5.55
2018-02-09T06:08:32.851Z,-5.53
2018-02-09T06:09:32.563Z,-5.36
2018-02-09T06:10:32.819Z,-5.37
2018-02-09T06:11:32.835Z,-5.36
2018-02-09T06:12:32.593Z,-5.26
2018-02-09T06:13:32.871Z,-5.26
2018-02-09T06:14:32.871Z,-5.27
2018-02-09T06:15:32.620Z,-5.32
2018-02-09T06:16:32.867Z,-5.23
2018-02-09T06:18:47.323Z,-5.26
2018-02-09T06:19:32.910Z,-5.26
2018-02-09T06:20:32.928Z,-5.27
2018-02-09T06:21:47.349Z,-5.27
2018-02-09T06:22:32.928Z,-5.26
2018-02-09T06:23:32.700Z,-5.13
2018-02-09T06:25:32.973Z,-5.25
2018-02-09T06:26:32.982Z,-5.18
2018-02-09T06:27:32.754Z,-5.13
2018-02-09T06:28:32.996Z,-5.11
2018-02-09T06:29:32.737Z,-5.18
2018-02-09T06:31:32.752Z,-5.18
2018-02-09T06:32:47.711Z,-5.23
2018-02-09T06:33:33.028Z,-5.1
2018-02-09T06:34:33.050Z,-5.13
2018-02-09T06:35:33.067Z,-5
2018-02-09T06:36:33.073Z,-5.03
2018-02-09T06:37:33.101Z,-4.97
2018-02-09T06:38:47.773Z,-5.06
2018-02-09T06:39:33.075Z,-4.95
2018-02-09T06:40:33.112Z,-4.99
2018-02-09T06:42:47.804Z,-4.97
2018-02-09T06:43:33.141Z,-4.93
2018-02-09T06:44:32.897Z,-4.86
2018-02-09T06:45:33.159Z,-4.83
2018-02-09T06:46:33.152Z,-4.86
2018-02-09T06:48:47.835Z,-4.78
2018-02-09T06:49:33.198Z,-4.75
2018-02-09T06:50:32.978Z,-4.68
2018-02-09T06:51:32.948Z,-4.77
2018-02-09T06:52:32.954Z,-4.74
2018-02-09T06:53:33.224Z,-4.77
2018-02-09T06:54:33.251Z,-4.74
2018-02-09T06:56:33.253Z,-4.75
2018-02-09T06:57:33.286Z,-4.63
2018-02-09T06:59:33.025Z,-4.56
2018-02-09T07:00:33.050Z,-4.49
2018-02-09T07:01:33.299Z,-4.54
2018-02-09T07:02:33.320Z,-4.43
2018-02-09T07:03:33.311Z,-4.4
2018-02-09T07:04:47.739Z,-4.46
2018-02-09T07:05:33.098Z,-4.42
2018-02-09T07:06:33.114Z,-4.35
2018-02-09T07:07:33.366Z,-4.24
2018-02-09T07:08:33.378Z,-4.21
2018-02-09T07:09:33.122Z,-4.24
2018-02-09T07:10:33.384Z,-4.25
2018-02-09T07:11:48.064Z,-4.2
2018-02-09T07:12:33.416Z,-4.24
2018-02-09T07:13:33.423Z,-4.17
2018-02-09T07:14:33.176Z,-4.2
2018-02-09T07:15:32.935Z,-4.21
2018-02-09T07:16:33.444Z,-4.11
2018-02-09T07:18:33.201Z,-4
2018-02-09T07:19:33.227Z,-3.91
2018-02-09T07:21:33.242Z,-3.97
2018-02-09T07:22:47.921Z,-3.85
2018-02-09T07:24:33.529Z,-3.88
2018-02-09T07:25:33.546Z,-3.82
2018-02-09T07:26:48.211Z,-3.76
2018-02-09T07:27:33.552Z,-3.78
2018-02-09T07:28:33.328Z,-3.72
2018-02-09T07:29:33.576Z,-3.69
2018-02-09T07:30:33.572Z,-3.53
2018-02-09T07:31:33.594Z,-3.6
2018-02-09T07:32:33.607Z,-3.53
2018-02-09T07:33:33.617Z,-3.48
2018-02-09T07:34:33.642Z,-3.36
2018-02-09T07:35:48.296Z,-3.38
2018-02-09T07:36:33.649Z,-3.38
2018-02-09T07:37:33.393Z,-3.35
2018-02-09T07:38:33.762Z,-3.35
2018-02-09T07:39:33.678Z,-3.38
2018-02-09T07:40:33.697Z,-3.33
2018-02-09T07:41:33.685Z,-3.24
2018-02-09T07:42:33.715Z,-3.1
2018-02-09T07:43:33.448Z,-3.09
2018-02-09T07:44:33.460Z,-3.06
2018-02-09T07:45:33.721Z,-3.1
2018-02-09T07:46:33.751Z,-3.06
2018-02-09T07:47:33.768Z,-2.97
2018-02-09T07:48:33.768Z,-2.97
2018-02-09T07:49:33.511Z,-2.85
2018-02-09T07:51:33.789Z,-2.88
2018-02-09T07:52:33.537Z,-2.81
2018-02-09T07:53:33.568Z,-2.85
2018-02-09T07:54:33.580Z,-2.74
2018-02-09T07:55:33.591Z,-2.85
2018-02-09T07:56:33.827Z,-2.81
2018-02-09T07:57:33.842Z,-2.81
2018-02-09T07:58:33.856Z,-2.73
2018-02-09T07:59:33.876Z,-2.7
2018-02-09T08:00:33.877Z,-2.7
2018-02-09T08:01:33.904Z,-2.68
2018-02-09T08:03:33.921Z,-2.55
2018-02-09T08:04:33.680Z,-2.55
2018-02-09T08:05:33.923Z,-2.52
2018-02-09T08:06:48.360Z,-2.45
2018-02-09T08:07:48.625Z,-2.46
2018-02-09T08:08:33.968Z,-2.49
2018-02-09T08:09:48.391Z,-2.46
2018-02-09T08:10:33.727Z,-2.46
2018-02-09T08:11:33.753Z,-2.34
2018-02-09T08:12:34.018Z,-2.39
2018-02-09T08:13:33.764Z,-2.39
2018-02-09T08:14:34.037Z,-2.29
2018-02-09T08:15:33.787Z,-2.24
2018-02-09T08:16:34.069Z,-2.42
2018-02-09T08:17:34.066Z,-2.4
2018-02-09T08:18:34.069Z,-2.39
2018-02-09T08:19:34.068Z,-2.4
2018-02-09T08:20:33.840Z,-2.21
2018-02-09T08:22:34.121Z,-2.2
2018-02-09T08:23:48.779Z,-2.12
2018-02-09T08:24:34.144Z,-2.08
2018-02-09T08:25:34.143Z,-2.03
2018-02-09T08:26:48.833Z,-1.94
2018-02-09T08:27:33.919Z,-2.03
2018-02-09T08:28:34.180Z,-1.91
2018-02-09T08:29:34.179Z,-1.82
2018-02-09T08:30:34.199Z,-1.76
2018-02-09T08:31:34.193Z,-1.69
2018-02-09T08:33:34.225Z,-1.58
2018-02-09T08:34:34.257Z,-1.59
2018-02-09T08:35:34.005Z,-1.51
2018-02-09T08:36:34.270Z,-1.49
2018-02-09T08:37:34.006Z,-1.55
2018-02-09T08:38:34.286Z,-1.58
2018-02-09T08:39:48.969Z,-1.43
2018-02-09T08:40:34.279Z,-1.38
2018-02-09T08:41:34.377Z,-1.43
2018-02-09T08:42:34.056Z,-1.34
2018-02-09T08:43:34.344Z,-1.38
2018-02-09T08:44:34.352Z,-1.22
2018-02-09T08:45:49.022Z,-1.15
2018-02-09T08:46:34.433Z,-1.15
2018-02-09T08:47:34.368Z,-1.22
2018-02-09T08:48:34.149Z,-1.28
2018-02-09T08:49:34.386Z,-1.28
2018-02-09T08:50:34.161Z,-1.3
2018-02-09T08:51:34.412Z,-1.23
2018-02-09T08:52:33.928Z,-1.28
2018-02-09T08:53:34.201Z,-1.19
2018-02-09T08:54:34.258Z,-1.15
2018-02-09T08:55:48.887Z,-1.16
2018-02-09T08:56:34.476Z,-1.04
2018-02-09T08:57:34.514Z,-1.1
2018-02-09T08:58:33.996Z,-1.04
2018-02-09T08:59:34.515Z,-0.89
2018-02-09T09:00:34.260Z,-0.91
2018-02-09T09:01:49.203Z,-0.65
2018-02-09T09:03:34.563Z,-0.67
2018-02-09T09:04:34.562Z,-0.82
2018-02-09T09:05:34.340Z,-0.8
2018-02-09T09:06:34.345Z,-0.79
2018-02-09T09:07:34.111Z,-0.76
2018-02-09T09:08:34.600Z,-0.78
2018-02-09T09:09:34.644Z,-0.82
2018-02-09T09:10:49.327Z,-0.79
2018-02-09T09:11:34.657Z,-0.85
2018-02-09T09:12:34.669Z,-0.82
2018-02-09T09:13:34.410Z,-0.83
2018-02-09T09:14:34.547Z,-0.7
2018-02-09T09:15:34.459Z,-0.61
2018-02-09T09:16:34.719Z,-0.52
2018-02-09T09:17:34.721Z,-0.52
2018-02-09T09:18:34.488Z,-0.19
2018-02-09T09:19:34.482Z,-0.19
2018-02-09T09:20:34.753Z,-0.21
2018-02-09T09:21:34.762Z,-0.19
2018-02-09T09:22:34.795Z,-0.03
2018-02-09T09:23:34.807Z,-0.1
2018-02-09T09:24:34.562Z,-0.07
2018-02-09T09:25:34.852Z,-0.11
2018-02-09T09:26:34.850Z,-0.05
2018-02-09T09:27:34.850Z,0.04
2018-02-09T09:28:34.875Z,-0.05
2018-02-09T09:29:34.867Z,-0.05
2018-02-09T09:30:34.889Z,0
2018-02-09T09:31:34.897Z,0
2018-02-09T09:32:34.670Z,0.04
2018-02-09T09:33:34.684Z,0
2018-02-09T09:35:34.951Z,0.02
2018-02-09T09:36:49.393Z,0.11
2018-02-09T09:37:34.972Z,-0.03
2018-02-09T09:38:34.984Z,0
2018-02-09T09:39:49.682Z,0.11
2018-02-09T09:40:34.771Z,0.14
2018-02-09T09:41:34.772Z,0.17
2018-02-09T09:42:49.707Z,0.24
2018-02-09T09:43:34.802Z,0.07
2018-02-09T09:44:49.512Z,0.17
2018-02-09T09:45:35.071Z,0.14
2018-02-09T09:46:49.768Z,0.28
2018-02-09T09:47:35.102Z,0.29
2018-02-09T09:48:34.978Z,0.29
2018-02-09T09:51:49.826Z,0.49
2018-02-09T09:52:34.670Z,0.57
2018-02-09T09:53:35.197Z,0.51
2018-02-09T09:54:35.208Z,0.38
2018-02-09T09:55:34.952Z,0.38
2018-02-09T09:56:35.231Z,0.36
2018-02-09T09:57:35.233Z,0.41
2018-02-09T09:58:49.914Z,0.5
2018-02-09T09:59:35.018Z,0.61
2018-02-09T10:00:35.281Z,0.68
2018-02-09T10:01:35.389Z,0.72
2018-02-09T10:02:35.308Z,0.7
2018-02-09T10:03:35.064Z,0.79
2018-02-09T10:04:35.341Z,0.83
2018-02-09T10:05:35.356Z,0.86
2018-02-09T10:07:35.124Z,0.86
2018-02-09T10:08:35.414Z,0.9
2018-02-09T10:09:35.381Z,0.91
2018-02-09T10:10:35.170Z,1.05
2018-02-09T10:11:49.842Z,1
2018-02-09T10:12:50.117Z,1.08
2018-02-09T10:13:35.548Z,1.16
2018-02-09T10:14:50.144Z,1.02
2018-02-09T10:15:35.468Z,1.09
2018-02-09T10:16:35.514Z,1.11
2018-02-09T10:17:35.240Z,1.11
2018-02-09T10:19:35.278Z,1.14
2018-02-09T10:20:35.591Z,1.02
2018-02-09T10:21:35.658Z,1.06
2018-02-09T10:22:35.325Z,1.15
2018-02-09T10:23:35.592Z,1.11
2018-02-09T10:24:35.595Z,1.04
2018-02-09T10:25:35.632Z,1.11
2018-02-09T10:26:35.645Z,1.08
2018-02-09T10:27:35.120Z,1.18
2018-02-09T10:28:35.641Z,1.23
2018-02-09T10:29:50.338Z,1.37
2018-02-09T10:30:50.346Z,1.34
2018-02-09T10:31:35.461Z,1.3
2018-02-09T10:32:50.376Z,1.26
2018-02-09T10:33:35.469Z,1.32
2018-02-09T10:34:35.717Z,1.32
2018-02-09T10:35:35.753Z,1.48
2018-02-09T10:36:35.773Z,1.55
2018-02-09T10:37:35.772Z,1.6
2018-02-09T10:38:35.534Z,1.65
2018-02-09T10:39:35.810Z,1.58
2018-02-09T10:40:35.818Z,1.54
2018-02-09T10:41:35.566Z,1.52
2018-02-09T10:42:35.849Z,1.6
2018-02-09T10:43:35.849Z,1.54
2018-02-09T10:44:35.899Z,1.6
2018-02-09T10:45:50.305Z,1.65
2018-02-09T10:46:35.644Z,1.65
2018-02-09T10:47:35.926Z,1.69
2018-02-09T10:48:35.670Z,1.76
2018-02-09T10:49:35.948Z,1.95
2018-02-09T10:50:35.701Z,2.03
2018-02-09T10:51:35.716Z,2.1
2018-02-09T10:52:35.742Z,2.16
2018-02-09T10:53:35.990Z,2.1
2018-02-09T10:54:36.007Z,2.07
2018-02-09T10:55:35.776Z,2.12
2018-02-09T10:56:36.033Z,2.24
2018-02-09T10:57:50.776Z,2.21
2018-02-09T10:58:36.064Z,2.12
2018-02-09T11:00:36.076Z,2.02
2018-02-09T11:01:36.123Z,1.98
2018-02-09T11:02:35.869Z,1.95
2018-02-09T11:03:36.142Z,1.98
2018-02-09T11:05:36.158Z,2
2018-02-09T11:06:35.922Z,2.16
2018-02-09T11:08:36.199Z,2.41
2018-02-09T11:09:35.973Z,2.49
2018-02-09T11:11:36.082Z,2.59
2018-02-09T11:12:36.249Z,2.59
2018-02-09T11:13:36.022Z,2.6
2018-02-09T11:14:35.780Z,2.75
2018-02-09T11:15:36.303Z,2.57
2018-02-09T11:16:36.309Z,2.72
2018-02-09T11:17:51.009Z,2.56
2018-02-09T11:18:36.322Z,2.53
2018-02-09T11:20:36.352Z,2.59
2018-02-09T11:21:36.380Z,2.61
2018-02-09T11:22:36.396Z,2.66
2018-02-09T11:23:36.522Z,2.71
2018-02-09T11:24:36.440Z,2.66
2018-02-09T11:25:36.447Z,2.69
2018-02-09T11:26:36.187Z,2.64
2018-02-09T11:27:36.470Z,2.84
2018-02-09T11:28:35.971Z,2.84
2018-02-09T11:29:36.235Z,2.96
2018-02-09T11:30:36.347Z,2.97
2018-02-09T11:31:36.320Z,2.9
2018-02-09T11:32:36.303Z,2.85
2018-02-09T11:33:51.220Z,2.95
2018-02-09T11:34:36.560Z,3.05
2018-02-09T11:35:36.578Z,2.99
2018-02-09T11:36:36.620Z,2.89
2018-02-09T11:37:36.609Z,2.95
2018-02-09T11:38:36.623Z,2.81
2018-02-09T11:39:36.627Z,2.81
2018-02-09T11:40:36.405Z,2.84
2018-02-09T11:41:36.419Z,2.9
2018-02-09T11:42:36.176Z,2.93
2018-02-09T11:43:36.704Z,2.95
2018-02-09T11:44:36.725Z,2.93
2018-02-09T11:45:36.714Z,3
2018-02-09T11:46:36.834Z,3.11
2018-02-09T11:47:36.513Z,3.15
2018-02-09T11:48:36.767Z,3.1
2018-02-09T11:49:51.205Z,3.1
2018-02-09T11:50:36.800Z,3.14
2018-02-09T11:51:36.551Z,3.13
2018-02-09T11:52:36.587Z,3.03
2018-02-09T11:53:36.575Z,2.92
2018-02-09T11:54:36.867Z,3
2018-02-09T11:55:36.873Z,3.14
2018-02-09T11:56:36.902Z,3.11
2018-02-09T11:57:36.650Z,2.95
2018-02-09T11:58:36.905Z,3.02
2018-02-09T11:59:36.919Z,2.92
2018-02-09T12:00:36.974Z,2.92
2018-02-09T12:01:36.973Z,2.93
2018-02-09T12:02:36.966Z,2.85
2018-02-09T12:03:37.002Z,2.79
2018-02-09T12:04:37.042Z,2.61
2018-02-09T12:05:51.442Z,2.61
2018-02-09T12:06:37.038Z,2.57
2018-02-09T12:07:36.804Z,2.59
2018-02-09T12:08:36.805Z,2.56
2018-02-09T12:10:36.845Z,2.66
2018-02-09T12:11:36.857Z,2.59
2018-02-09T12:12:37.115Z,2.6
2018-02-09T12:13:37.143Z,2.59
2018-02-09T12:14:37.141Z,2.54
2018-02-09T12:15:37.244Z,2.52
2018-02-09T12:16:36.937Z,2.6
2018-02-09T12:17:37.309Z,2.48
2018-02-09T12:18:36.964Z,2.6
2018-02-09T12:19:36.961Z,2.57
2018-02-09T12:20:51.910Z,2.75
2018-02-09T12:21:37.247Z,2.69
2018-02-09T12:22:36.759Z,2.63
2018-02-09T12:23:37.027Z,2.64
2018-02-09T12:24:37.309Z,2.81
2018-02-09T12:25:37.048Z,2.84
2018-02-09T12:26:37.329Z,2.87
2018-02-09T12:27:37.097Z,3.02
2018-02-09T12:28:37.400Z,2.96
2018-02-09T12:29:37.115Z,3
2018-02-09T12:30:37.399Z,3.02
2018-02-09T12:31:37.148Z,3.08
2018-02-09T12:33:36.920Z,3.11
2018-02-09T12:34:37.190Z,3.14
2018-02-09T12:35:37.466Z,3.23
2018-02-09T12:36:37.207Z,3.17
2018-02-09T12:37:37.534Z,3.21
2018-02-09T12:38:37.234Z,3.21
2018-02-09T12:39:37.508Z,3.2
2018-02-09T12:40:37.281Z,3.2
2018-02-09T12:41:37.037Z,3.18
2018-02-09T12:42:37.306Z,3.18
2018-02-09T12:43:37.551Z,3.29
2018-02-09T12:44:37.599Z,3.33
2018-02-09T12:46:37.612Z,3.29
2018-02-09T12:47:37.634Z,3.36
2018-02-09T12:48:37.726Z,3.43
2018-02-09T12:49:37.679Z,3.52
2018-02-09T12:50:37.671Z,3.35
2018-02-09T12:51:37.687Z,3.33
2018-02-09T12:52:52.378Z,3.36
2018-02-09T12:53:37.475Z,3.28
2018-02-09T12:54:52.402Z,3.21
2018-02-09T12:55:37.739Z,3.17
2018-02-09T12:56:37.762Z,3.2
2018-02-09T12:57:37.780Z,3.15
2018-02-09T12:58:37.530Z,3.15
2018-02-09T12:59:37.545Z,3.31
2018-02-09T13:00:37.570Z,3.17
2018-02-09T13:01:37.841Z,3.13
2018-02-09T13:02:37.915Z,3.1
2018-02-09T13:03:37.852Z,2.99
2018-02-09T13:04:37.888Z,2.96
2018-02-09T13:05:37.641Z,3.03
2018-02-09T13:06:38.003Z,2.97
2018-02-09T13:07:37.923Z,2.95
2018-02-09T13:08:52.623Z,2.87
2018-02-09T13:09:37.691Z,2.93
2018-02-09T13:10:37.982Z,2.87
2018-02-09T13:11:37.974Z,2.89
2018-02-09T13:12:37.758Z,2.85
2018-02-09T13:13:52.784Z,2.84
2018-02-09T13:14:38.008Z,2.82
2018-02-09T13:15:38.038Z,3
2018-02-09T13:16:37.793Z,2.87
2018-02-09T13:17:38.062Z,2.82
2018-02-09T13:18:37.820Z,2.84
2018-02-09T13:19:38.098Z,2.92
2018-02-09T13:20:37.940Z,2.85
2018-02-09T13:21:37.868Z,2.85
2018-02-09T13:22:37.636Z,2.81
2018-02-09T13:23:37.902Z,2.84
2018-02-09T13:24:52.849Z,2.82
2018-02-09T13:25:38.165Z,2.75
2018-02-09T13:26:37.949Z,2.84
2018-02-09T13:27:38.191Z,2.9
2018-02-09T13:28:38.224Z,2.85
2018-02-09T13:29:38.239Z,2.9
2018-02-09T13:30:38.100Z,2.85
2018-02-09T13:31:38.028Z,2.82
2018-02-09T13:32:52.953Z,2.84
2018-02-09T13:33:38.310Z,2.81
2018-02-09T13:34:38.065Z,2.85
2018-02-09T13:35:38.408Z,2.81
2018-02-09T13:36:38.355Z,2.96
2018-02-09T13:37:38.088Z,2.93
2018-02-09T13:38:38.360Z,2.9
2018-02-09T13:39:38.384Z,2.9
2018-02-09T13:40:53.071Z,2.89
2018-02-09T13:41:37.916Z,2.93
2018-02-09T13:42:38.440Z,2.95
2018-02-09T13:43:38.448Z,2.9
2018-02-09T13:44:38.199Z,2.89
2018-02-09T13:45:38.474Z,2.78
2018-02-09T13:46:38.488Z,2.82
2018-02-09T13:47:38.494Z,2.77
2018-02-09T13:48:38.513Z,2.75
2018-02-09T13:49:38.525Z,2.66
2018-02-09T13:50:38.538Z,2.71
2018-02-09T13:51:38.348Z,2.72